sensor_id;sensor_type;location;lat;lon;timestamp;P1;durP1;ratioP1;P2;durP2;ratioP2
72201;SDS011;60105;54.956;73.412;2023-02-15T00:01:14;19.07;;;9.23;;
72201;SDS011;60105;54.956;73.412;2023-02-15T00:04:17;10.35;;;7.60;;
72201;SDS011;60105;54.956;73.412;2023-02-15T00:07:20;11.93;;;8.87;;
72201;SDS011;60105;54.956;73.412;2023-02-15T00:10:28;20.30;;;8.38;;
72201;SDS011;60105;54.956;73.412;2023-02-15T00:13:30;9.45;;;6.93;;
72201;SDS011;60105;54.956;73.412;2023-02-15T00:16:42;12.65;;;7.88;;
72201;SDS011;60105;54.956;73.412;2023-02-15T00:20:12;20.52;;;8.20;;
72201;SDS011;60105;54.956;73.412;2023-02-15T00:23:13;16.60;;;8.27;;
72201;SDS011;60105;54.956;73.412;2023-02-15T00:26:14;21.05;;;9.98;;
72201;SDS011;60105;54.956;73.412;2023-02-15T00:29:27;15.53;;;8.17;;
72201;SDS011;60105;54.956;73.412;2023-02-15T00:32:29;10.52;;;6.93;;
72201;SDS011;60105;54.956;73.412;2023-02-15T00:35:31;28.47;;;9.37;;
72201;SDS011;60105;54.956;73.412;2023-02-15T00:38:42;23.83;;;8.25;;
72201;SDS011;60105;54.956;73.412;2023-02-15T00:41:46;14.00;;;8.70;;
72201;SDS011;60105;54.956;73.412;2023-02-15T00:45:12;17.00;;;8.90;;
72201;SDS011;60105;54.956;73.412;2023-02-15T00:48:13;23.42;;;11.40;;
72201;SDS011;60105;54.956;73.412;2023-02-15T00:51:15;11.93;;;7.85;;
72201;SDS011;60105;54.956;73.412;2023-02-15T00:54:27;12.05;;;8.38;;
72201;SDS011;60105;54.956;73.412;2023-02-15T00:57:30;23.93;;;7.37;;
72201;SDS011;60105;54.956;73.412;2023-02-15T01:00:31;17.45;;;10.38;;
72201;SDS011;60105;54.956;73.412;2023-02-15T01:03:33;15.10;;;9.57;;
72201;SDS011;60105;54.956;73.412;2023-02-15T01:06:36;11.60;;;9.27;;
72201;SDS011;60105;54.956;73.412;2023-02-15T01:09:40;17.02;;;8.52;;
72201;SDS011;60105;54.956;73.412;2023-02-15T01:12:42;20.17;;;10.82;;
72201;SDS011;60105;54.956;73.412;2023-02-15T01:15:43;23.33;;;9.85;;
72201;SDS011;60105;54.956;73.412;2023-02-15T01:18:45;17.95;;;10.60;;
72201;SDS011;60105;54.956;73.412;2023-02-15T01:21:54;19.80;;;8.10;;
72201;SDS011;60105;54.956;73.412;2023-02-15T01:28:13;15.87;;;7.70;;
72201;SDS011;60105;54.956;73.412;2023-02-15T01:31:15;9.05;;;8.10;;
72201;SDS011;60105;54.956;73.412;2023-02-15T01:34:19;15.38;;;8.45;;
72201;SDS011;60105;54.956;73.412;2023-02-15T01:37:20;12.10;;;9.87;;
72201;SDS011;60105;54.956;73.412;2023-02-15T01:40:23;16.67;;;7.67;;
72201;SDS011;60105;54.956;73.412;2023-02-15T01:43:38;32.15;;;9.55;;
72201;SDS011;60105;54.956;73.412;2023-02-15T01:46:54;8.50;;;6.63;;
72201;SDS011;60105;54.956;73.412;2023-02-15T01:53:24;11.95;;;8.80;;
72201;SDS011;60105;54.956;73.412;2023-02-15T01:56:33;24.07;;;11.43;;
72201;SDS011;60105;54.956;73.412;2023-02-15T02:00:12;19.42;;;9.90;;
72201;SDS011;60105;54.956;73.412;2023-02-15T02:03:14;27.25;;;11.20;;
72201;SDS011;60105;54.956;73.412;2023-02-15T02:06:16;16.08;;;12.43;;
72201;SDS011;60105;54.956;73.412;2023-02-15T02:09:18;22.73;;;11.30;;
72201;SDS011;60105;54.956;73.412;2023-02-15T02:12:20;16.58;;;10.05;;
72201;SDS011;60105;54.956;73.412;2023-02-15T02:15:25;13.05;;;9.30;;
72201;SDS011;60105;54.956;73.412;2023-02-15T02:19:04;11.83;;;9.30;;
72201;SDS011;60105;54.956;73.412;2023-02-15T02:22:43;13.77;;;8.40;;
72201;SDS011;60105;54.956;73.412;2023-02-15T02:26:00;22.87;;;10.03;;
72201;SDS011;60105;54.956;73.412;2023-02-15T02:32:52;23.65;;;12.32;;
72201;SDS011;60105;54.956;73.412;2023-02-15T02:36:20;24.58;;;12.85;;
72201;SDS011;60105;54.956;73.412;2023-02-15T02:39:43;15.77;;;9.38;;
72201;SDS011;60105;54.956;73.412;2023-02-15T02:43:28;34.78;;;11.38;;
72201;SDS011;60105;54.956;73.412;2023-02-15T02:53:15;24.08;;;13.27;;
72201;SDS011;60105;54.956;73.412;2023-02-15T02:56:21;22.87;;;11.63;;
72201;SDS011;60105;54.956;73.412;2023-02-15T02:59:31;17.67;;;9.68;;
72201;SDS011;60105;54.956;73.412;2023-02-15T03:02:37;27.60;;;13.33;;
72201;SDS011;60105;54.956;73.412;2023-02-15T03:05:53;27.33;;;14.48;;
72201;SDS011;60105;54.956;73.412;2023-02-15T03:09:12;17.93;;;11.00;;
72201;SDS011;60105;54.956;73.412;2023-02-15T03:12:30;22.67;;;10.67;;
72201;SDS011;60105;54.956;73.412;2023-02-15T03:15:38;13.00;;;9.43;;
72201;SDS011;60105;54.956;73.412;2023-02-15T03:19:12;20.67;;;15.60;;
72201;SDS011;60105;54.956;73.412;2023-02-15T03:22:21;29.35;;;10.38;;
72201;SDS011;60105;54.956;73.412;2023-02-15T03:25:34;26.57;;;11.83;;
72201;SDS011;60105;54.956;73.412;2023-02-15T03:28:50;15.73;;;10.82;;
72201;SDS011;60105;54.956;73.412;2023-02-15T03:31:58;26.40;;;10.43;;
72201;SDS011;60105;54.956;73.412;2023-02-15T03:38:17;18.27;;;11.27;;
72201;SDS011;60105;54.956;73.412;2023-02-15T03:41:26;13.53;;;10.07;;
72201;SDS011;60105;54.956;73.412;2023-02-15T03:45:14;17.92;;;9.32;;
72201;SDS011;60105;54.956;73.412;2023-02-15T03:48:18;14.07;;;9.67;;
72201;SDS011;60105;54.956;73.412;2023-02-15T03:51:36;33.38;;;10.88;;
72201;SDS011;60105;54.956;73.412;2023-02-15T03:55:12;18.48;;;12.63;;
72201;SDS011;60105;54.956;73.412;2023-02-15T03:58:13;34.65;;;13.43;;
72201;SDS011;60105;54.956;73.412;2023-02-15T04:08:14;21.02;;;10.27;;
72201;SDS011;60105;54.956;73.412;2023-02-15T04:11:15;20.80;;;11.97;;
72201;SDS011;60105;54.956;73.412;2023-02-15T04:14:16;14.43;;;9.70;;
72201;SDS011;60105;54.956;73.412;2023-02-15T04:17:36;18.80;;;9.93;;
72201;SDS011;60105;54.956;73.412;2023-02-15T04:20:38;20.80;;;11.63;;
72201;SDS011;60105;54.956;73.412;2023-02-15T04:23:58;26.07;;;11.53;;
72201;SDS011;60105;54.956;73.412;2023-02-15T04:27:17;15.20;;;10.40;;
72201;SDS011;60105;54.956;73.412;2023-02-15T04:30:19;13.98;;;10.77;;
72201;SDS011;60105;54.956;73.412;2023-02-15T04:33:28;18.45;;;9.65;;
72201;SDS011;60105;54.956;73.412;2023-02-15T04:36:29;18.23;;;10.90;;
72201;SDS011;60105;54.956;73.412;2023-02-15T04:39:40;17.50;;;8.82;;
72201;SDS011;60105;54.956;73.412;2023-02-15T04:42:52;20.98;;;12.32;;
72201;SDS011;60105;54.956;73.412;2023-02-15T04:45:53;14.77;;;8.95;;
72201;SDS011;60105;54.956;73.412;2023-02-15T04:48:54;12.48;;;9.93;;
72201;SDS011;60105;54.956;73.412;2023-02-15T04:51:56;20.88;;;9.95;;
72201;SDS011;60105;54.956;73.412;2023-02-15T04:58:13;25.63;;;13.98;;
72201;SDS011;60105;54.956;73.412;2023-02-15T05:01:24;23.10;;;14.27;;
72201;SDS011;60105;54.956;73.412;2023-02-15T05:05:12;25.94;;;12.81;;
72201;SDS011;60105;54.956;73.412;2023-02-15T05:08:15;39.80;;;16.58;;
72201;SDS011;60105;54.956;73.412;2023-02-15T05:11:17;30.27;;;15.07;;
72201;SDS011;60105;54.956;73.412;2023-02-15T05:14:18;28.23;;;14.57;;
72201;SDS011;60105;54.956;73.412;2023-02-15T05:17:20;30.17;;;14.20;;
72201;SDS011;60105;54.956;73.412;2023-02-15T05:20:21;34.30;;;15.33;;
72201;SDS011;60105;54.956;73.412;2023-02-15T05:23:23;28.42;;;13.88;;
72201;SDS011;60105;54.956;73.412;2023-02-15T05:26:24;28.50;;;13.27;;
72201;SDS011;60105;54.956;73.412;2023-02-15T05:30:12;28.40;;;16.20;;
72201;SDS011;60105;54.956;73.412;2023-02-15T05:33:14;33.33;;;16.95;;
72201;SDS011;60105;54.956;73.412;2023-02-15T05:36:22;28.03;;;13.50;;
72201;SDS011;60105;54.956;73.412;2023-02-15T05:39:23;34.60;;;14.70;;
72201;SDS011;60105;54.956;73.412;2023-02-15T05:42:34;26.47;;;14.73;;
72201;SDS011;60105;54.956;73.412;2023-02-15T05:45:35;23.70;;;14.80;;
72201;SDS011;60105;54.956;73.412;2023-02-15T05:48:37;36.58;;;16.70;;
72201;SDS011;60105;54.956;73.412;2023-02-15T05:51:38;37.10;;;16.93;;
72201;SDS011;60105;54.956;73.412;2023-02-15T05:55:12;28.48;;;14.15;;
72201;SDS011;60105;54.956;73.412;2023-02-15T05:58:13;44.97;;;16.95;;
72201;SDS011;60105;54.956;73.412;2023-02-15T06:01:15;41.17;;;18.03;;
72201;SDS011;60105;54.956;73.412;2023-02-15T06:04:18;47.63;;;17.75;;
72201;SDS011;60105;54.956;73.412;2023-02-15T06:07:20;36.43;;;16.80;;
72201;SDS011;60105;54.956;73.412;2023-02-15T06:10:21;32.85;;;15.80;;
72201;SDS011;60105;54.956;73.412;2023-02-15T06:13:22;52.20;;;21.77;;
72201;SDS011;60105;54.956;73.412;2023-02-15T06:16:24;40.50;;;17.88;;
72201;SDS011;60105;54.956;73.412;2023-02-15T06:20:12;50.60;;;17.55;;
72201;SDS011;60105;54.956;73.412;2023-02-15T06:23:18;46.80;;;21.27;;
72201;SDS011;60105;54.956;73.412;2023-02-15T06:26:24;42.60;;;20.50;;
72201;SDS011;60105;54.956;73.412;2023-02-15T06:29:25;37.67;;;18.50;;
72201;SDS011;60105;54.956;73.412;2023-02-15T06:32:27;44.37;;;19.90;;
72201;SDS011;60105;54.956;73.412;2023-02-15T06:35:39;46.03;;;20.15;;
72201;SDS011;60105;54.956;73.412;2023-02-15T06:38:45;51.13;;;18.42;;
72201;SDS011;60105;54.956;73.412;2023-02-15T06:41:51;39.50;;;19.77;;
72201;SDS011;60105;54.956;73.412;2023-02-15T06:45:12;41.50;;;20.40;;
72201;SDS011;60105;54.956;73.412;2023-02-15T06:48:13;29.37;;;14.53;;
72201;SDS011;60105;54.956;73.412;2023-02-15T06:51:18;30.83;;;14.55;;
72201;SDS011;60105;54.956;73.412;2023-02-15T06:54:19;37.45;;;17.10;;
72201;SDS011;60105;54.956;73.412;2023-02-15T06:57:20;54.10;;;20.30;;
72201;SDS011;60105;54.956;73.412;2023-02-15T07:00:22;34.80;;;16.08;;
72201;SDS011;60105;54.956;73.412;2023-02-15T07:03:24;43.03;;;16.23;;
72201;SDS011;60105;54.956;73.412;2023-02-15T07:06:35;41.07;;;15.97;;
72201;SDS011;60105;54.956;73.412;2023-02-15T07:09:41;27.50;;;12.57;;
72201;SDS011;60105;54.956;73.412;2023-02-15T07:12:52;44.70;;;15.63;;
72201;SDS011;60105;54.956;73.412;2023-02-15T07:15:54;46.10;;;17.58;;
72201;SDS011;60105;54.956;73.412;2023-02-15T07:18:55;43.55;;;16.60;;
72201;SDS011;60105;54.956;73.412;2023-02-15T07:21:56;36.40;;;14.53;;
72201;SDS011;60105;54.956;73.412;2023-02-15T07:28:23;32.97;;;14.10;;
72201;SDS011;60105;54.956;73.412;2023-02-15T07:31:24;35.63;;;14.47;;
72201;SDS011;60105;54.956;73.412;2023-02-15T07:34:25;41.72;;;13.40;;
72201;SDS011;60105;54.956;73.412;2023-02-15T07:37:27;28.00;;;13.03;;
72201;SDS011;60105;54.956;73.412;2023-02-15T07:40:28;54.10;;;14.73;;
72201;SDS011;60105;54.956;73.412;2023-02-15T07:43:30;46.55;;;12.55;;
72201;SDS011;60105;54.956;73.412;2023-02-15T07:46:34;34.60;;;12.77;;
72201;SDS011;60105;54.956;73.412;2023-02-15T07:50:12;30.05;;;11.73;;
72201;SDS011;60105;54.956;73.412;2023-02-15T07:53:23;44.30;;;15.73;;
72201;SDS011;60105;54.956;73.412;2023-02-15T07:56:24;34.87;;;12.13;;
72201;SDS011;60105;54.956;73.412;2023-02-15T07:59:26;38.47;;;13.45;;
72201;SDS011;60105;54.956;73.412;2023-02-15T08:02:28;29.10;;;14.77;;
72201;SDS011;60105;54.956;73.412;2023-02-15T08:05:30;45.92;;;16.13;;
72201;SDS011;60105;54.956;73.412;2023-02-15T08:08:36;26.93;;;13.23;;
72201;SDS011;60105;54.956;73.412;2023-02-15T08:11:39;27.20;;;13.10;;
72201;SDS011;60105;54.956;73.412;2023-02-15T08:15:12;16.90;;;9.38;;
72201;SDS011;60105;54.956;73.412;2023-02-15T08:18:13;31.85;;;13.38;;
72201;SDS011;60105;54.956;73.412;2023-02-15T08:21:19;21.47;;;10.43;;
72201;SDS011;60105;54.956;73.412;2023-02-15T08:24:21;31.77;;;12.38;;
72201;SDS011;60105;54.956;73.412;2023-02-15T08:27:24;27.33;;;13.00;;
72201;SDS011;60105;54.956;73.412;2023-02-15T08:30:37;24.92;;;12.27;;
72201;SDS011;60105;54.956;73.412;2023-02-15T08:33:39;30.17;;;12.30;;
72201;SDS011;60105;54.956;73.412;2023-02-15T08:36:42;22.33;;;12.03;;
72201;SDS011;60105;54.956;73.412;2023-02-15T08:39:46;21.60;;;10.05;;
72201;SDS011;60105;54.956;73.412;2023-02-15T08:42:47;22.73;;;12.68;;
72201;SDS011;60105;54.956;73.412;2023-02-15T08:45:49;22.85;;;12.18;;
72201;SDS011;60105;54.956;73.412;2023-02-15T08:48:50;24.67;;;11.48;;
72201;SDS011;60105;54.956;73.412;2023-02-15T08:51:52;23.73;;;12.77;;
72201;SDS011;60105;54.956;73.412;2023-02-15T08:55:12;23.80;;;12.80;;
72201;SDS011;60105;54.956;73.412;2023-02-15T08:58:18;21.23;;;10.33;;
72201;SDS011;60105;54.956;73.412;2023-02-15T09:01:20;19.30;;;11.50;;
72201;SDS011;60105;54.956;73.412;2023-02-15T09:04:23;21.58;;;11.73;;
72201;SDS011;60105;54.956;73.412;2023-02-15T09:07:24;25.90;;;13.38;;
72201;SDS011;60105;54.956;73.412;2023-02-15T09:10:25;25.45;;;14.10;;
72201;SDS011;60105;54.956;73.412;2023-02-15T09:13:27;32.97;;;13.87;;
72201;SDS011;60105;54.956;73.412;2023-02-15T09:16:29;36.85;;;13.07;;
72201;SDS011;60105;54.956;73.412;2023-02-15T09:20:12;24.80;;;12.62;;
72201;SDS011;60105;54.956;73.412;2023-02-15T09:23:23;28.67;;;13.70;;
72201;SDS011;60105;54.956;73.412;2023-02-15T09:26:29;27.70;;;10.60;;
72201;SDS011;60105;54.956;73.412;2023-02-15T09:30:12;21.80;;;10.77;;
72201;SDS011;60105;54.956;73.412;2023-02-15T09:33:23;29.52;;;11.18;;
72201;SDS011;60105;54.956;73.412;2023-02-15T09:36:28;21.07;;;10.87;;
72201;SDS011;60105;54.956;73.412;2023-02-15T09:39:41;24.60;;;10.25;;
72201;SDS011;60105;54.956;73.412;2023-02-15T09:49:21;18.93;;;10.60;;
72201;SDS011;60105;54.956;73.412;2023-02-15T09:52:49;15.23;;;9.68;;
72201;SDS011;60105;54.956;73.412;2023-02-15T09:56:30;20.37;;;10.17;;
72201;SDS011;60105;54.956;73.412;2023-02-15T10:00:27;24.95;;;8.60;;
72201;SDS011;60105;54.956;73.412;2023-02-15T10:10:51;18.67;;;10.00;;
72201;SDS011;60105;54.956;73.412;2023-02-15T10:14:37;21.35;;;10.20;;
72201;SDS011;60105;54.956;73.412;2023-02-15T10:28:53;18.98;;;9.98;;
72201;SDS011;60105;54.956;73.412;2023-02-15T10:32:01;21.52;;;9.50;;
72201;SDS011;60105;54.956;73.412;2023-02-15T11:06:18;16.03;;;7.97;;
72201;SDS011;60105;54.956;73.412;2023-02-15T11:09:29;21.35;;;9.88;;
72201;SDS011;60105;54.956;73.412;2023-02-15T11:12:38;24.73;;;11.53;;
72201;SDS011;60105;54.956;73.412;2023-02-15T11:19:26;22.98;;;9.15;;
72201;SDS011;60105;54.956;73.412;2023-02-15T11:22:33;33.67;;;12.57;;
72201;SDS011;60105;54.956;73.412;2023-02-15T11:25:35;18.70;;;10.07;;
72201;SDS011;60105;54.956;73.412;2023-02-15T11:28:45;26.13;;;12.63;;
72201;SDS011;60105;54.956;73.412;2023-02-15T11:31:59;31.63;;;11.57;;
72201;SDS011;60105;54.956;73.412;2023-02-15T11:38:53;23.77;;;11.47;;
72201;SDS011;60105;54.956;73.412;2023-02-15T11:42:00;21.10;;;10.63;;
72201;SDS011;60105;54.956;73.412;2023-02-15T11:48:29;18.60;;;8.87;;
72201;SDS011;60105;54.956;73.412;2023-02-15T11:51:33;18.05;;;9.85;;
72201;SDS011;60105;54.956;73.412;2023-02-15T11:55:17;25.20;;;9.68;;
72201;SDS011;60105;54.956;73.412;2023-02-15T12:01:37;18.90;;;8.88;;
72201;SDS011;60105;54.956;73.412;2023-02-15T12:05:13;19.40;;;9.18;;
72201;SDS011;60105;54.956;73.412;2023-02-15T12:08:30;19.65;;;12.77;;
72201;SDS011;60105;54.956;73.412;2023-02-15T12:11:49;26.10;;;10.70;;
72201;SDS011;60105;54.956;73.412;2023-02-15T12:18:20;15.20;;;9.13;;
72201;SDS011;60105;54.956;73.412;2023-02-15T12:21:33;25.05;;;9.80;;
72201;SDS011;60105;54.956;73.412;2023-02-15T12:28:34;17.38;;;9.70;;
72201;SDS011;60105;54.956;73.412;2023-02-15T12:31:39;13.43;;;8.47;;
72201;SDS011;60105;54.956;73.412;2023-02-15T12:44:27;29.73;;;11.50;;
72201;SDS011;60105;54.956;73.412;2023-02-15T12:47:41;18.93;;;10.80;;
72201;SDS011;60105;54.956;73.412;2023-02-15T12:50:43;21.20;;;12.10;;
72201;SDS011;60105;54.956;73.412;2023-02-15T12:53:53;19.02;;;9.48;;
72201;SDS011;60105;54.956;73.412;2023-02-15T12:56:55;19.45;;;8.93;;
72201;SDS011;60105;54.956;73.412;2023-02-15T13:03:21;12.57;;;8.13;;
72201;SDS011;60105;54.956;73.412;2023-02-15T13:06:26;17.10;;;9.15;;
72201;SDS011;60105;54.956;73.412;2023-02-15T13:09:40;17.94;;;9.56;;
72201;SDS011;60105;54.956;73.412;2023-02-15T13:12:41;35.80;;;10.23;;
72201;SDS011;60105;54.956;73.412;2023-02-15T13:16:00;18.97;;;9.17;;
72201;SDS011;60105;54.956;73.412;2023-02-15T13:19:08;16.55;;;8.23;;
72201;SDS011;60105;54.956;73.412;2023-02-15T13:22:35;19.80;;;9.20;;
72201;SDS011;60105;54.956;73.412;2023-02-15T13:25:53;18.07;;;10.10;;
72201;SDS011;60105;54.956;73.412;2023-02-15T13:28:58;21.05;;;11.63;;
72201;SDS011;60105;54.956;73.412;2023-02-15T13:35:28;15.00;;;10.10;;
72201;SDS011;60105;54.956;73.412;2023-02-15T13:52:27;23.55;;;12.32;;
72201;SDS011;60105;54.956;73.412;2023-02-15T14:02:30;12.93;;;8.90;;
72201;SDS011;60105;54.956;73.412;2023-02-15T14:06:08;22.13;;;11.02;;
72201;SDS011;60105;54.956;73.412;2023-02-15T14:15:58;30.80;;;11.93;;
72201;SDS011;60105;54.956;73.412;2023-02-15T14:22:37;24.63;;;8.90;;
72201;SDS011;60105;54.956;73.412;2023-02-15T14:25:46;23.08;;;10.88;;
72201;SDS011;60105;54.956;73.412;2023-02-15T14:28:57;25.50;;;10.30;;
72201;SDS011;60105;54.956;73.412;2023-02-15T14:32:31;31.40;;;12.60;;
72201;SDS011;60105;54.956;73.412;2023-02-15T14:35:36;30.42;;;10.80;;
72201;SDS011;60105;54.956;73.412;2023-02-15T14:38:45;23.40;;;9.50;;
72201;SDS011;60105;54.956;73.412;2023-02-15T14:52:48;21.90;;;9.50;;
72201;SDS011;60105;54.956;73.412;2023-02-15T14:56:25;20.33;;;8.77;;
72201;SDS011;60105;54.956;73.412;2023-02-15T15:02:58;19.17;;;11.07;;
72201;SDS011;60105;54.956;73.412;2023-02-15T15:06:19;28.90;;;9.35;;
72201;SDS011;60105;54.956;73.412;2023-02-15T15:09:27;13.95;;;7.97;;
72201;SDS011;60105;54.956;73.412;2023-02-15T15:15:45;18.07;;;8.20;;
72201;SDS011;60105;54.956;73.412;2023-02-15T15:18:58;24.33;;;11.30;;
72201;SDS011;60105;54.956;73.412;2023-02-15T15:22:03;22.73;;;10.00;;
72201;SDS011;60105;54.956;73.412;2023-02-15T15:31:52;14.93;;;8.93;;
72201;SDS011;60105;54.956;73.412;2023-02-15T15:48:41;19.97;;;8.30;;
72201;SDS011;60105;54.956;73.412;2023-02-15T15:51:43;28.13;;;10.10;;
72201;SDS011;60105;54.956;73.412;2023-02-15T15:55:14;13.07;;;10.13;;
72201;SDS011;60105;54.956;73.412;2023-02-15T15:58:19;22.30;;;10.60;;
72201;SDS011;60105;54.956;73.412;2023-02-15T16:01:27;18.30;;;11.43;;
72201;SDS011;60105;54.956;73.412;2023-02-15T16:05:11;28.92;;;10.60;;
72201;SDS011;60105;54.956;73.412;2023-02-15T16:08:31;35.20;;;12.80;;
72201;SDS011;60105;54.956;73.412;2023-02-15T16:11:35;20.70;;;9.27;;
72201;SDS011;60105;54.956;73.412;2023-02-15T16:15:15;30.00;;;10.52;;
72201;SDS011;60105;54.956;73.412;2023-02-15T16:18:25;19.23;;;10.75;;
72201;SDS011;60105;54.956;73.412;2023-02-15T16:21:32;26.10;;;9.93;;
72201;SDS011;60105;54.956;73.412;2023-02-15T16:28:23;30.08;;;12.30;;
72201;SDS011;60105;54.956;73.412;2023-02-15T16:31:25;18.83;;;12.73;;
72201;SDS011;60105;54.956;73.412;2023-02-15T16:35:16;15.68;;;8.57;;
72201;SDS011;60105;54.956;73.412;2023-02-15T16:41:54;22.60;;;10.80;;
72201;SDS011;60105;54.956;73.412;2023-02-15T16:48:16;15.95;;;8.63;;
72201;SDS011;60105;54.956;73.412;2023-02-15T16:51:22;18.27;;;9.50;;
72201;SDS011;60105;54.956;73.412;2023-02-15T16:55:21;20.05;;;9.75;;
72201;SDS011;60105;54.956;73.412;2023-02-15T16:58:41;43.80;;;12.23;;
72201;SDS011;60105;54.956;73.412;2023-02-15T17:01:45;35.60;;;15.45;;
72201;SDS011;60105;54.956;73.412;2023-02-15T17:08:15;36.80;;;12.20;;
72201;SDS011;60105;54.956;73.412;2023-02-15T17:11:33;22.80;;;11.50;;
72201;SDS011;60105;54.956;73.412;2023-02-15T17:15:24;45.45;;;15.85;;
72201;SDS011;60105;54.956;73.412;2023-02-15T17:21:40;17.47;;;10.53;;
72201;SDS011;60105;54.956;73.412;2023-02-15T17:28:30;13.48;;;8.10;;
72201;SDS011;60105;54.956;73.412;2023-02-15T17:31:32;16.07;;;11.03;;
72201;SDS011;60105;54.956;73.412;2023-02-15T17:38:27;22.95;;;13.27;;
72201;SDS011;60105;54.956;73.412;2023-02-15T17:41:34;26.02;;;12.20;;
72201;SDS011;60105;54.956;73.412;2023-02-15T17:45:11;20.25;;;10.98;;
72201;SDS011;60105;54.956;73.412;2023-02-15T17:48:35;24.35;;;12.73;;
72201;SDS011;60105;54.956;73.412;2023-02-15T17:51:48;33.43;;;13.03;;
72201;SDS011;60105;54.956;73.412;2023-02-15T17:58:36;15.23;;;10.05;;
72201;SDS011;60105;54.956;73.412;2023-02-15T18:01:40;22.60;;;9.83;;
72201;SDS011;60105;54.956;73.412;2023-02-15T18:08:40;24.30;;;12.03;;
72201;SDS011;60105;54.956;73.412;2023-02-15T18:12:20;16.45;;;12.75;;
72201;SDS011;60105;54.956;73.412;2023-02-15T18:15:23;14.82;;;7.88;;
72201;SDS011;60105;54.956;73.412;2023-02-15T18:18:25;21.40;;;12.33;;
72201;SDS011;60105;54.956;73.412;2023-02-15T18:21:27;29.93;;;11.33;;
72201;SDS011;60105;54.956;73.412;2023-02-15T18:25:12;26.23;;;10.45;;
72201;SDS011;60105;54.956;73.412;2023-02-15T18:28:20;33.53;;;13.77;;
72201;SDS011;60105;54.956;73.412;2023-02-15T18:31:21;24.63;;;11.90;;
72201;SDS011;60105;54.956;73.412;2023-02-15T18:35:15;28.48;;;11.45;;
72201;SDS011;60105;54.956;73.412;2023-02-15T18:38:18;24.55;;;12.25;;
72201;SDS011;60105;54.956;73.412;2023-02-15T18:41:20;21.08;;;11.60;;
72201;SDS011;60105;54.956;73.412;2023-02-15T18:44:22;37.55;;;12.30;;
72201;SDS011;60105;54.956;73.412;2023-02-15T18:47:34;14.60;;;10.57;;
72201;SDS011;60105;54.956;73.412;2023-02-15T18:50:35;20.53;;;11.57;;
72201;SDS011;60105;54.956;73.412;2023-02-15T18:53:37;22.42;;;9.60;;
72201;SDS011;60105;54.956;73.412;2023-02-15T18:56:39;19.33;;;10.80;;
72201;SDS011;60105;54.956;73.412;2023-02-15T19:03:27;31.48;;;13.15;;
72201;SDS011;60105;54.956;73.412;2023-02-15T19:06:31;24.23;;;12.40;;
72201;SDS011;60105;54.956;73.412;2023-02-15T19:09:40;20.02;;;12.43;;
72201;SDS011;60105;54.956;73.412;2023-02-15T19:12:42;29.02;;;16.45;;
72201;SDS011;60105;54.956;73.412;2023-02-15T19:15:53;21.95;;;13.52;;
72201;SDS011;60105;54.956;73.412;2023-02-15T19:18:54;22.08;;;12.10;;
72201;SDS011;60105;54.956;73.412;2023-02-15T19:21:56;26.80;;;14.55;;
72201;SDS011;60105;54.956;73.412;2023-02-15T19:28:20;13.93;;;9.43;;
72201;SDS011;60105;54.956;73.412;2023-02-15T19:31:35;20.20;;;12.43;;
72201;SDS011;60105;54.956;73.412;2023-02-15T19:35:20;19.00;;;12.93;;
72201;SDS011;60105;54.956;73.412;2023-02-15T19:38:25;21.53;;;13.27;;
72201;SDS011;60105;54.956;73.412;2023-02-15T19:41:30;15.55;;;10.48;;
72201;SDS011;60105;54.956;73.412;2023-02-15T19:45:15;28.92;;;12.80;;
72201;SDS011;60105;54.956;73.412;2023-02-15T19:48:18;31.23;;;12.05;;
72201;SDS011;60105;54.956;73.412;2023-02-15T19:51:20;18.97;;;10.37;;
72201;SDS011;60105;54.956;73.412;2023-02-15T19:54:30;15.15;;;10.68;;
72201;SDS011;60105;54.956;73.412;2023-02-15T19:57:37;23.00;;;12.10;;
72201;SDS011;60105;54.956;73.412;2023-02-15T20:00:38;17.65;;;11.40;;
72201;SDS011;60105;54.956;73.412;2023-02-15T20:03:39;23.40;;;11.10;;
72201;SDS011;60105;54.956;73.412;2023-02-15T20:06:42;19.10;;;10.10;;
72201;SDS011;60105;54.956;73.412;2023-02-15T20:09:53;16.92;;;11.10;;
72201;SDS011;60105;54.956;73.412;2023-02-15T20:12:55;23.35;;;9.07;;
72201;SDS011;60105;54.956;73.412;2023-02-15T20:15:56;23.90;;;11.43;;
72201;SDS011;60105;54.956;73.412;2023-02-15T20:19:00;27.00;;;10.85;;
72201;SDS011;60105;54.956;73.412;2023-02-15T20:22:30;15.20;;;9.10;;
72201;SDS011;60105;54.956;73.412;2023-02-15T20:25:33;8.17;;;6.97;;
72201;SDS011;60105;54.956;73.412;2023-02-15T20:28:37;17.45;;;7.82;;
72201;SDS011;60105;54.956;73.412;2023-02-15T20:31:48;20.87;;;9.03;;
72201;SDS011;60105;54.956;73.412;2023-02-15T20:38:24;14.63;;;8.70;;
72201;SDS011;60105;54.956;73.412;2023-02-15T20:41:27;15.10;;;9.25;;
72201;SDS011;60105;54.956;73.412;2023-02-15T20:45:16;17.55;;;9.38;;
72201;SDS011;60105;54.956;73.412;2023-02-15T20:48:27;29.30;;;11.90;;
72201;SDS011;60105;54.956;73.412;2023-02-15T20:51:28;20.88;;;12.38;;
72201;SDS011;60105;54.956;73.412;2023-02-15T20:55:21;27.84;;;12.20;;
72201;SDS011;60105;54.956;73.412;2023-02-15T20:58:29;21.83;;;11.50;;
72201;SDS011;60105;54.956;73.412;2023-02-15T21:01:41;19.27;;;10.53;;
72201;SDS011;60105;54.956;73.412;2023-02-15T21:05:15;8.85;;;7.95;;
72201;SDS011;60105;54.956;73.412;2023-02-15T21:08:25;16.92;;;9.98;;
72201;SDS011;60105;54.956;73.412;2023-02-15T21:11:31;23.25;;;12.27;;
72201;SDS011;60105;54.956;73.412;2023-02-15T21:18:35;28.40;;;14.40;;
72201;SDS011;60105;54.956;73.412;2023-02-15T21:21:38;20.35;;;10.40;;
72201;SDS011;60105;54.956;73.412;2023-02-15T21:28:19;25.90;;;11.37;;
72201;SDS011;60105;54.956;73.412;2023-02-15T21:31:26;19.30;;;10.52;;
72201;SDS011;60105;54.956;73.412;2023-02-15T21:35:11;17.49;;;9.31;;
72201;SDS011;60105;54.956;73.412;2023-02-15T21:38:19;18.13;;;11.57;;
72201;SDS011;60105;54.956;73.412;2023-02-15T21:41:24;18.23;;;11.07;;
72201;SDS011;60105;54.956;73.412;2023-02-15T21:45:15;25.55;;;11.00;;
72201;SDS011;60105;54.956;73.412;2023-02-15T21:48:35;43.10;;;14.50;;
72201;SDS011;60105;54.956;73.412;2023-02-15T21:51:36;21.50;;;9.70;;
72201;SDS011;60105;54.956;73.412;2023-02-15T21:58:19;21.88;;;10.70;;
72201;SDS011;60105;54.956;73.412;2023-02-15T22:01:24;19.42;;;10.05;;
72201;SDS011;60105;54.956;73.412;2023-02-15T22:05:12;16.75;;;10.23;;
72201;SDS011;60105;54.956;73.412;2023-02-15T22:08:21;21.52;;;10.40;;
72201;SDS011;60105;54.956;73.412;2023-02-15T22:11:22;17.37;;;12.60;;
72201;SDS011;60105;54.956;73.412;2023-02-15T22:17:33;11.87;;;8.57;;
72201;SDS011;60105;54.956;73.412;2023-02-15T22:20:44;20.25;;;11.15;;
72201;SDS011;60105;54.956;73.412;2023-02-15T22:23:45;19.13;;;9.00;;
72201;SDS011;60105;54.956;73.412;2023-02-15T22:26:47;10.80;;;6.77;;
72201;SDS011;60105;54.956;73.412;2023-02-15T22:33:25;22.77;;;9.57;;
72201;SDS011;60105;54.956;73.412;2023-02-15T22:36:29;23.43;;;8.73;;
72201;SDS011;60105;54.956;73.412;2023-02-15T22:39:40;11.95;;;7.90;;
72201;SDS011;60105;54.956;73.412;2023-02-15T22:42:49;19.85;;;10.98;;